createdAt,value
2022-08-30T00:03:03.859Z,15.58
2022-08-30T00:08:07.204Z,15.48
2022-08-30T00:13:12.557Z,15.49
2022-08-30T00:18:18.369Z,15.45
2022-08-30T00:23:21.800Z,15.28
2022-08-30T00:28:24.970Z,15.18
2022-08-30T00:33:29.886Z,15.12
2022-08-30T00:38:33.079Z,15.03
2022-08-30T00:43:37.082Z,15.00
2022-08-30T00:48:45.323Z,14.94
2022-08-30T00:53:51.987Z,14.98
2022-08-30T00:58:57.928Z,15.07
2022-08-30T01:04:01.186Z,15.13
2022-08-30T01:09:06.423Z,15.24
2022-08-30T01:14:11.995Z,15.43
2022-08-30T01:19:39.981Z,15.03
2022-08-30T01:24:45.014Z,15.25
2022-08-30T01:29:48.632Z,15.22
2022-08-30T01:34:51.661Z,15.12
2022-08-30T01:39:54.985Z,15.38
2022-08-30T01:44:57.929Z,15.53
2022-08-30T01:50:00.994Z,15.64
2022-08-30T01:55:06.058Z,15.68
2022-08-30T02:00:11.313Z,15.71
2022-08-30T02:05:17.253Z,15.63
2022-08-30T02:10:21.264Z,15.71
2022-08-30T02:15:24.318Z,15.66
2022-08-30T02:20:27.876Z,15.38
2022-08-30T02:25:30.839Z,15.12
2022-08-30T02:30:34.867Z,15.05
2022-08-30T02:35:38.704Z,14.89
2022-08-30T02:40:42.313Z,14.82
2022-08-30T02:45:45.989Z,14.62
2022-08-30T02:50:51.880Z,14.70
2022-08-30T02:55:54.989Z,14.60
2022-08-30T03:00:58.261Z,14.64
2022-08-30T03:06:03.521Z,14.58
2022-08-30T03:11:07.805Z,14.62
2022-08-30T03:16:11.122Z,14.56
2022-08-30T03:21:16.369Z,14.47
2022-08-30T03:26:20.089Z,14.33
2022-08-30T03:31:23.785Z,14.25
2022-08-30T03:36:26.863Z,14.27
2022-08-30T03:41:30.946Z,14.16
2022-08-30T03:46:37.485Z,14.21
2022-08-30T03:51:41.065Z,14.11
2022-08-30T03:56:45.001Z,13.99
2022-08-30T04:01:48.178Z,13.93
2022-08-30T04:06:51.894Z,13.93
2022-08-30T04:11:55.342Z,13.88
2022-08-30T04:16:58.589Z,13.71
2022-08-30T04:22:02.323Z,13.60
2022-08-30T04:27:05.692Z,13.64
2022-08-30T04:32:09.260Z,13.68
2022-08-30T04:37:13.050Z,13.68
2022-08-30T04:42:16.359Z,13.90
2022-08-30T04:47:19.449Z,14.00
2022-08-30T04:52:23.445Z,14.06
2022-08-30T04:57:28.215Z,14.29
2022-08-30T05:02:31.694Z,14.43
2022-08-30T05:07:35.689Z,14.56
2022-08-30T05:12:39.561Z,14.59
2022-08-30T05:17:43.791Z,14.76
2022-08-30T05:22:53.462Z,15.26
2022-08-30T05:27:57.704Z,15.79
2022-08-30T05:33:02.595Z,16.33
2022-08-30T05:38:05.606Z,16.47
2022-08-30T05:43:11.921Z,16.84
2022-08-30T05:48:15.333Z,17.45
2022-08-30T05:53:19.357Z,17.99
2022-08-30T05:58:23.242Z,18.53
2022-08-30T06:03:27.115Z,19.01
2022-08-30T06:08:30.686Z,19.50
2022-08-30T06:13:33.855Z,20.03
2022-08-30T06:18:36.936Z,21.78
2022-08-30T06:23:40.207Z,25.21
2022-08-30T06:28:43.874Z,25.92
2022-08-30T06:33:47.919Z,27.39
2022-08-30T06:38:57.072Z,28.31
2022-08-30T06:44:02.443Z,29.70
2022-08-30T06:49:06.323Z,31.07
2022-08-30T06:54:12.098Z,30.49
2022-08-30T06:59:15.293Z,30.85
2022-08-30T07:04:18.901Z,30.52
2022-08-30T07:09:23.142Z,29.51
2022-08-30T07:14:26.738Z,29.56
2022-08-30T07:19:29.704Z,29.71
2022-08-30T07:24:32.747Z,30.13
2022-08-30T07:29:36.058Z,30.33
2022-08-30T07:34:39.734Z,30.24
2022-08-30T07:39:47.576Z,29.84
2022-08-30T07:44:54.791Z,29.67
2022-08-30T07:50:01.672Z,30.80
2022-08-30T07:55:06.217Z,30.45
2022-08-30T08:00:10.124Z,30.61
2022-08-30T08:05:18.138Z,30.78
2022-08-30T08:10:22.845Z,30.28
2022-08-30T08:15:27.069Z,31.60
2022-08-30T08:20:30.982Z,30.60
2022-08-30T08:25:38.514Z,30.36
2022-08-30T08:30:45.161Z,30.71
2022-08-30T08:35:51.689Z,30.23
2022-08-30T08:41:22.261Z,29.81
2022-08-30T08:46:31.028Z,30.12
2022-08-30T08:51:59.266Z,29.51
2022-08-30T08:57:03.062Z,30.13
2022-08-30T09:02:34.588Z,30.30
2022-08-30T09:07:43.204Z,31.00
2022-08-30T09:12:46.272Z,30.60
2022-08-30T09:17:59.296Z,30.43
2022-08-30T09:23:27.910Z,30.93
2022-08-30T09:28:35.573Z,31.61
2022-08-30T09:33:39.068Z,31.64
2022-08-30T09:38:42.319Z,31.67
2022-08-30T09:43:45.336Z,31.37
2022-08-30T09:48:48.724Z,31.49
2022-08-30T09:54:17.399Z,31.72
2022-08-30T09:59:49.280Z,31.97
2022-08-30T10:05:03.119Z,31.88
2022-08-30T10:10:21.679Z,33.10
2022-08-30T10:15:34.455Z,32.30
2022-08-30T10:20:54.961Z,32.34
2022-08-30T10:26:25.716Z,32.13
2022-08-30T10:31:50.705Z,32.00
2022-08-30T10:37:14.460Z,31.42
2022-08-30T10:42:22.113Z,31.86
2022-08-30T10:47:45.697Z,33.59
2022-08-30T10:53:03.815Z,32.34
2022-08-30T10:58:08.125Z,31.99
2022-08-30T11:03:27.794Z,31.85
2022-08-30T11:09:09.076Z,30.66
2022-08-30T11:14:17.684Z,31.16
2022-08-30T11:19:23.320Z,31.69
2022-08-30T11:24:30.557Z,30.60
2022-08-30T11:29:39.291Z,30.54
2022-08-30T11:34:48.351Z,29.84
2022-08-30T11:39:55.319Z,29.20
2022-08-30T11:45:24.854Z,29.70
2022-08-30T11:50:35.215Z,29.05
2022-08-30T11:55:59.888Z,28.97
2022-08-30T12:01:40.924Z,29.13
2022-08-30T12:06:43.155Z,28.43
2022-08-30T12:12:02.606Z,28.29
2022-08-30T12:17:43.315Z,29.42
2022-08-30T12:22:46.368Z,30.79
2022-08-30T12:27:50.961Z,30.99
2022-08-30T12:32:54.291Z,31.84
2022-08-30T12:38:12.951Z,32.03
2022-08-30T12:43:49.824Z,31.39
2022-08-30T12:48:54.107Z,31.78
2022-08-30T12:54:03.387Z,30.53
2022-08-30T12:59:06.394Z,29.87
2022-08-30T13:04:23.065Z,29.25
2022-08-30T13:09:44.216Z,29.79
2022-08-30T13:14:50.075Z,28.82
2022-08-30T13:19:57.327Z,28.69
2022-08-30T13:25:03.475Z,28.97
2022-08-30T13:30:13.592Z,28.09
2022-08-30T13:35:17.995Z,28.65
2022-08-30T13:40:23.008Z,30.36
2022-08-30T13:45:41.967Z,30.07
2022-08-30T13:50:45.887Z,30.68
2022-08-30T13:55:49.386Z,32.00
2022-08-30T14:00:53.873Z,31.25
2022-08-30T14:06:29.538Z,30.17
2022-08-30T14:11:24.136Z,30.90
2022-08-30T14:16:28.486Z,31.84
2022-08-30T14:21:32.488Z,31.29
2022-08-30T14:26:53.868Z,32.13
2022-08-30T14:31:59.961Z,32.12
2022-08-30T14:37:03.442Z,32.73
2022-08-30T14:42:07.628Z,31.79
2022-08-30T14:47:13.240Z,31.80
2022-08-30T14:52:16.327Z,30.60
2022-08-30T14:57:19.977Z,29.99
2022-08-30T15:02:26.969Z,29.29
2022-08-30T15:07:31.049Z,29.45
2022-08-30T15:12:34.545Z,29.12
2022-08-30T15:17:37.820Z,28.79
2022-08-30T15:22:41.841Z,29.29
2022-08-30T15:27:49.956Z,29.88
2022-08-30T15:32:53.586Z,29.41
2022-08-30T15:37:57.018Z,28.71
2022-08-30T15:43:00.601Z,28.96
2022-08-30T15:48:04.686Z,29.01
2022-08-30T15:53:08.242Z,28.23
2022-08-30T15:58:11.492Z,28.25
2022-08-30T16:03:15.242Z,28.14
2022-08-30T16:08:19.403Z,27.30
2022-08-30T16:13:24.918Z,26.28
2022-08-30T16:18:34.959Z,25.50
2022-08-30T16:30:04.089Z,24.79
2022-08-30T16:35:07.651Z,24.28
2022-08-30T16:40:11.680Z,24.01
2022-08-30T16:45:16.033Z,23.69
2022-08-30T16:50:21.733Z,23.14
2022-08-30T16:55:25.027Z,23.05
2022-08-30T17:00:28.687Z,22.82
2022-08-30T17:05:31.913Z,22.52
2022-08-30T17:10:38.611Z,22.44
2022-08-30T17:15:45.923Z,22.25
2022-08-30T17:20:49.988Z,22.22
2022-08-30T17:25:54.121Z,22.25
2022-08-30T17:30:57.925Z,22.08
2022-08-30T17:36:00.839Z,21.96
2022-08-30T17:41:07.441Z,21.77
2022-08-30T17:46:18.843Z,21.53
2022-08-30T17:51:22.145Z,21.38
2022-08-30T17:56:34.093Z,21.13
2022-08-30T18:01:38.864Z,20.93
2022-08-30T18:06:42.393Z,20.76
2022-08-30T18:11:45.855Z,20.47
2022-08-30T18:16:54.010Z,20.27
2022-08-30T18:21:58.027Z,20.19
2022-08-30T18:27:05.197Z,20.01
2022-08-30T18:32:09.007Z,19.70
2022-08-30T18:37:14.035Z,19.56
2022-08-30T18:42:20.045Z,19.47
2022-08-30T18:47:24.841Z,19.33
2022-08-30T18:52:28.431Z,19.31
2022-08-30T18:57:32.298Z,19.14
2022-08-30T19:02:36.787Z,19.01
2022-08-30T19:07:40.744Z,18.96
2022-08-30T19:12:43.763Z,18.87
2022-08-30T19:17:48.255Z,18.68
2022-08-30T19:23:09.514Z,18.62
2022-08-30T19:28:14.968Z,18.60
2022-08-30T19:33:20.174Z,18.43
2022-08-30T19:38:26.489Z,18.38
2022-08-30T19:43:40.280Z,18.22
2022-08-30T19:48:43.802Z,18.10
2022-08-30T19:53:47.103Z,18.03
2022-08-30T19:58:53.368Z,18.00
2022-08-30T20:04:04.546Z,17.97
2022-08-30T20:09:10.413Z,17.79
2022-08-30T20:14:15.578Z,17.78
2022-08-30T20:19:27.210Z,17.83
2022-08-30T20:24:32.312Z,17.54
2022-08-30T20:29:35.684Z,17.62
2022-08-30T20:34:40.353Z,17.59
2022-08-30T20:39:43.327Z,17.60
2022-08-30T20:44:47.490Z,17.62
2022-08-30T20:49:51.652Z,17.49
2022-08-30T20:54:55.226Z,17.42
2022-08-30T21:00:01.665Z,17.34
2022-08-30T21:05:05.843Z,17.27
2022-08-30T21:10:09.960Z,17.12
2022-08-30T21:15:36.309Z,17.28
2022-08-30T21:20:36.341Z,17.22
2022-08-30T21:25:40.753Z,17.22
2022-08-30T21:30:44.169Z,17.27
2022-08-30T21:36:06.313Z,17.17
2022-08-30T21:41:09.326Z,17.30
2022-08-30T21:46:13.526Z,17.57
2022-08-30T21:51:17.403Z,17.58
2022-08-30T21:56:23.505Z,17.58
2022-08-30T22:01:29.468Z,17.59
2022-08-30T22:06:35.890Z,17.51
2022-08-30T22:11:39.383Z,17.71
2022-08-30T22:16:43.160Z,17.94
2022-08-30T22:21:48.459Z,18.04
2022-08-30T22:26:52.322Z,17.92
2022-08-30T22:31:55.821Z,17.80
2022-08-30T22:36:59.757Z,17.57
2022-08-30T22:42:02.870Z,17.30
2022-08-30T22:47:08.556Z,17.24
2022-08-30T22:52:13.007Z,17.19
2022-08-30T22:57:19.611Z,17.04
2022-08-30T23:02:22.989Z,16.98
2022-08-30T23:07:26.761Z,16.73
2022-08-30T23:12:31.106Z,16.42
2022-08-30T23:17:34.090Z,16.68
2022-08-30T23:22:42.978Z,16.48
2022-08-30T23:28:05.678Z,16.32
2022-08-30T23:33:27.292Z,16.33
2022-08-30T23:38:49.414Z,16.06
2022-08-30T23:44:10.990Z,15.98
2022-08-30T23:49:32.593Z,16.02
2022-08-30T23:54:55.054Z,15.80
